sensor_id;sensor_type;location;lat;lon;timestamp;pressure;altitude;pressure_sealevel;temperature;humidity
15260;BME280;34462;51.368;12.364;2022-08-18T00:01:14;21738.97;;;-141.84;50.95
15260;BME280;34462;51.368;12.364;2022-08-18T00:03:46;21793.84;;;-141.84;51.22
15260;BME280;34462;51.368;12.364;2022-08-18T00:06:26;21775.56;;;-141.84;51.77
15260;BME280;34462;51.368;12.364;2022-08-18T00:08:57;21757.25;;;-141.84;51.85
15260;BME280;34462;51.368;12.364;2022-08-18T00:11:26;21751.16;;;-141.84;51.73
15260;BME280;34462;51.368;12.364;2022-08-18T00:14:11;21773.53;;;-141.84;51.34
15260;BME280;34462;51.368;12.364;2022-08-18T00:16:51;21810.13;;;-141.84;50.81
15260;BME280;34462;51.368;12.364;2022-08-18T00:19:22;21818.25;;;-141.84;50.08
15260;BME280;34462;51.368;12.364;2022-08-18T00:22:13;21793.84;;;-141.84;50.26
15260;BME280;34462;51.368;12.364;2022-08-18T00:24:44;21820.28;;;-141.84;51.03
15260;BME280;34462;51.368;12.364;2022-08-18T00:27:13;21791.81;;;-141.84;51.21
15260;BME280;34462;51.368;12.364;2022-08-18T00:29:42;21806.06;;;-141.84;51.10
15260;BME280;34462;51.368;12.364;2022-08-18T00:32:12;21777.59;;;-141.84;50.83
15260;BME280;34462;51.368;12.364;2022-08-18T00:34:42;21773.53;;;-141.84;51.07
15260;BME280;34462;51.368;12.364;2022-08-18T00:37:10;21793.84;;;-141.84;50.77
15260;BME280;34462;51.368;12.364;2022-08-18T00:39:38;21773.53;;;-141.84;50.98
15260;BME280;34462;51.368;12.364;2022-08-18T00:42:16;21749.13;;;-141.84;51.42
15260;BME280;34462;51.368;12.364;2022-08-18T00:45:00;21808.09;;;-141.84;51.99
15260;BME280;34462;51.368;12.364;2022-08-18T00:47:30;21743.03;;;-141.84;52.37
15260;BME280;34462;51.368;12.364;2022-08-18T00:50:13;21712.53;;;-141.84;52.58
15260;BME280;34462;51.368;12.364;2022-08-18T00:52:53;21724.72;;;-141.84;52.85
15260;BME280;34462;51.368;12.364;2022-08-18T00:55:24;21724.72;;;-141.84;52.72
15260;BME280;34462;51.368;12.364;2022-08-18T00:57:58;21690.16;;;-141.84;53.44
15260;BME280;34462;51.368;12.364;2022-08-18T01:00:28;21647.47;;;-141.84;53.64
15260;BME280;34462;51.368;12.364;2022-08-18T01:03:00;21657.63;;;-141.84;54.60
15260;BME280;34462;51.368;12.364;2022-08-18T01:05:37;21602.72;;;-141.84;54.25
15260;BME280;34462;51.368;12.364;2022-08-18T01:08:13;21625.09;;;-141.84;54.24
15260;BME280;34462;51.368;12.364;2022-08-18T01:10:44;21659.66;;;-141.84;54.45
15260;BME280;34462;51.368;12.364;2022-08-18T01:13:12;21592.56;;;-141.84;54.56
15260;BME280;34462;51.368;12.364;2022-08-18T01:15:41;21590.53;;;-141.84;54.97
15260;BME280;34462;51.368;12.364;2022-08-18T01:18:12;21578.31;;;-141.84;54.93
15260;BME280;34462;51.368;12.364;2022-08-18T01:21:09;21578.31;;;-141.84;54.89
15260;BME280;34462;51.368;12.364;2022-08-18T01:24:01;21623.06;;;-141.84;54.38
15260;BME280;34462;51.368;12.364;2022-08-18T01:26:34;21594.59;;;-141.84;55.14
15260;BME280;34462;51.368;12.364;2022-08-18T01:29:10;21574.25;;;-141.84;55.31
15260;BME280;34462;51.368;12.364;2022-08-18T01:31:50;21558.00;;;-141.84;54.99
15260;BME280;34462;51.368;12.364;2022-08-18T01:34:25;21639.31;;;-141.84;54.67
15260;BME280;34462;51.368;12.364;2022-08-18T01:36:55;21600.69;;;-141.84;54.78
15260;BME280;34462;51.368;12.364;2022-08-18T01:39:25;21614.94;;;-141.84;54.81
15260;BME280;34462;51.368;12.364;2022-08-18T01:42:15;21547.81;;;-141.84;54.82
15260;BME280;34462;51.368;12.364;2022-08-18T01:44:46;21531.56;;;-141.84;55.57
15260;BME280;34462;51.368;12.364;2022-08-18T01:47:14;21558.00;;;-141.84;55.35
15260;BME280;34462;51.368;12.364;2022-08-18T01:49:44;21553.94;;;-141.84;55.78
15260;BME280;34462;51.368;12.364;2022-08-18T01:52:16;21527.50;;;-141.84;56.04
15260;BME280;34462;51.368;12.364;2022-08-18T01:54:47;21505.13;;;-141.84;56.48
15260;BME280;34462;51.368;12.364;2022-08-18T01:57:20;21478.69;;;-141.84;56.93
15260;BME280;34462;51.368;12.364;2022-08-18T01:59:49;21505.13;;;-141.84;57.10
15260;BME280;34462;51.368;12.364;2022-08-18T02:02:22;21525.47;;;-141.84;57.36
15260;BME280;34462;51.368;12.364;2022-08-18T02:04:58;21503.09;;;-141.84;57.67
15260;BME280;34462;51.368;12.364;2022-08-18T02:07:28;21492.94;;;-141.84;57.88
15260;BME280;34462;51.368;12.364;2022-08-18T02:10:05;21472.59;;;-141.84;57.80
15260;BME280;34462;51.368;12.364;2022-08-18T02:12:38;21484.78;;;-141.84;57.53
15260;BME280;34462;51.368;12.364;2022-08-18T02:15:09;21490.91;;;-141.84;57.54
15260;BME280;34462;51.368;12.364;2022-08-18T02:17:38;21488.88;;;-141.84;57.46
15260;BME280;34462;51.368;12.364;2022-08-18T02:20:10;21440.06;;;-141.84;57.74
15260;BME280;34462;51.368;12.364;2022-08-18T02:22:39;21413.63;;;-141.84;58.32
15260;BME280;34462;51.368;12.364;2022-08-18T02:25:10;21482.75;;;-141.84;58.01
15260;BME280;34462;51.368;12.364;2022-08-18T02:27:38;21436.00;;;-141.84;58.29
15260;BME280;34462;51.368;12.364;2022-08-18T02:30:11;21497.00;;;-141.84;58.23
15260;BME280;34462;51.368;12.364;2022-08-18T02:32:41;21460.41;;;-141.84;58.07
15260;BME280;34462;51.368;12.364;2022-08-18T02:35:10;21480.72;;;-141.84;58.02
15260;BME280;34462;51.368;12.364;2022-08-18T02:37:39;21472.59;;;-141.84;58.54
15260;BME280;34462;51.368;12.364;2022-08-18T02:40:10;21419.72;;;-141.84;58.61
15260;BME280;34462;51.368;12.364;2022-08-18T02:42:41;21423.81;;;-141.84;58.59
15260;BME280;34462;51.368;12.364;2022-08-18T02:45:10;21417.69;;;-141.84;58.18
15260;BME280;34462;51.368;12.364;2022-08-18T02:47:40;21446.16;;;-141.84;58.56
15260;BME280;34462;51.368;12.364;2022-08-18T02:50:10;21452.25;;;-141.84;58.28
15260;BME280;34462;51.368;12.364;2022-08-18T02:52:39;21444.13;;;-141.84;58.73
15260;BME280;34462;51.368;12.364;2022-08-18T02:55:10;21427.88;;;-141.84;58.68
15260;BME280;34462;51.368;12.364;2022-08-18T02:57:41;21415.66;;;-141.84;58.44
15260;BME280;34462;51.368;12.364;2022-08-18T03:00:11;21452.25;;;-141.84;58.18
15260;BME280;34462;51.368;12.364;2022-08-18T03:02:45;21448.19;;;-141.84;58.31
15260;BME280;34462;51.368;12.364;2022-08-18T03:05:14;21446.16;;;-141.84;58.49
15260;BME280;34462;51.368;12.364;2022-08-18T03:07:43;21446.16;;;-141.84;58.11
15260;BME280;34462;51.368;12.364;2022-08-18T03:10:12;21429.91;;;-141.84;58.37
15260;BME280;34462;51.368;12.364;2022-08-18T03:12:59;21456.34;;;-141.84;58.11
15260;BME280;34462;51.368;12.364;2022-08-18T03:15:27;21499.03;;;-141.84;57.88
15260;BME280;34462;51.368;12.364;2022-08-18T03:17:56;21442.09;;;-141.84;58.36
15260;BME280;34462;51.368;12.364;2022-08-18T03:20:24;21440.06;;;-141.84;58.77
15260;BME280;34462;51.368;12.364;2022-08-18T03:22:57;21442.09;;;-141.84;58.71
15260;BME280;34462;51.368;12.364;2022-08-18T03:25:44;21423.81;;;-141.84;58.74
15260;BME280;34462;51.368;12.364;2022-08-18T03:28:14;21425.84;;;-141.84;58.51
15260;BME280;34462;51.368;12.364;2022-08-18T03:30:42;21429.91;;;-141.84;58.25
15260;BME280;34462;51.368;12.364;2022-08-18T03:33:11;21472.59;;;-141.84;57.64
15260;BME280;34462;51.368;12.364;2022-08-18T03:35:39;21427.88;;;-141.84;57.53
15260;BME280;34462;51.368;12.364;2022-08-18T03:38:07;21427.88;;;-141.84;58.09
15260;BME280;34462;51.368;12.364;2022-08-18T03:40:37;21393.31;;;-141.84;58.27
15260;BME280;34462;51.368;12.364;2022-08-18T03:43:05;21372.97;;;-141.84;58.45
15260;BME280;34462;51.368;12.364;2022-08-18T03:45:54;21364.84;;;-141.84;58.23
15260;BME280;34462;51.368;12.364;2022-08-18T03:48:22;21358.75;;;-141.84;57.81
15260;BME280;34462;51.368;12.364;2022-08-18T03:50:51;21370.94;;;-141.84;57.59
15260;BME280;34462;51.368;12.364;2022-08-18T03:53:19;21397.38;;;-141.84;57.06
15260;BME280;34462;51.368;12.364;2022-08-18T03:55:48;21381.09;;;-141.84;57.29
15260;BME280;34462;51.368;12.364;2022-08-18T03:58:16;21375.00;;;-141.84;57.59
15260;BME280;34462;51.368;12.364;2022-08-18T04:00:45;21379.06;;;-141.84;57.41
15260;BME280;34462;51.368;12.364;2022-08-18T04:03:13;21360.78;;;-141.84;58.03
15260;BME280;34462;51.368;12.364;2022-08-18T04:05:41;21375.00;;;-141.84;57.49
15260;BME280;34462;51.368;12.364;2022-08-18T04:08:09;21393.31;;;-141.84;57.90
15260;BME280;34462;51.368;12.364;2022-08-18T04:10:39;21368.91;;;-141.84;57.92
15260;BME280;34462;51.368;12.364;2022-08-18T04:13:11;21423.81;;;-141.84;57.78
15260;BME280;34462;51.368;12.364;2022-08-18T04:15:39;21403.47;;;-141.84;57.71
15260;BME280;34462;51.368;12.364;2022-08-18T04:18:07;21421.75;;;-141.84;57.69
15260;BME280;34462;51.368;12.364;2022-08-18T04:20:36;21415.66;;;-141.84;57.22
15260;BME280;34462;51.368;12.364;2022-08-18T04:23:20;21425.84;;;-141.84;57.07
15260;BME280;34462;51.368;12.364;2022-08-18T04:25:55;21440.06;;;-141.84;57.44
15260;BME280;34462;51.368;12.364;2022-08-18T04:28:27;21370.94;;;-141.84;57.60
15260;BME280;34462;51.368;12.364;2022-08-18T04:30:56;21393.31;;;-141.84;57.95
15260;BME280;34462;51.368;12.364;2022-08-18T04:33:26;21379.06;;;-141.84;57.92
15260;BME280;34462;51.368;12.364;2022-08-18T04:35:54;21442.09;;;-141.84;57.95
15260;BME280;34462;51.368;12.364;2022-08-18T04:38:23;21405.50;;;-141.84;57.96
15260;BME280;34462;51.368;12.364;2022-08-18T04:40:51;21438.03;;;-141.84;57.64
15260;BME280;34462;51.368;12.364;2022-08-18T04:43:19;21440.06;;;-141.84;57.78
15260;BME280;34462;51.368;12.364;2022-08-18T04:45:48;21431.94;;;-141.84;57.53
15260;BME280;34462;51.368;12.364;2022-08-18T04:48:17;21466.50;;;-141.84;57.19
15260;BME280;34462;51.368;12.364;2022-08-18T04:50:48;21488.88;;;-141.84;56.42
15260;BME280;34462;51.368;12.364;2022-08-18T04:53:16;21515.28;;;-141.84;55.86
15260;BME280;34462;51.368;12.364;2022-08-18T04:56:02;21614.94;;;-141.84;53.63
15260;BME280;34462;51.368;12.364;2022-08-18T04:58:30;21637.28;;;-141.84;52.25
15260;BME280;34462;51.368;12.364;2022-08-18T05:01:00;21616.97;;;-141.84;51.69
15260;BME280;34462;51.368;12.364;2022-08-18T05:03:29;21639.31;;;-141.84;52.49
15260;BME280;34462;51.368;12.364;2022-08-18T05:05:57;21614.94;;;-141.84;52.70
15260;BME280;34462;51.368;12.364;2022-08-18T05:08:26;21653.56;;;-141.84;51.97
15260;BME280;34462;51.368;12.364;2022-08-18T05:10:55;21684.06;;;-141.84;52.23
15260;BME280;34462;51.368;12.364;2022-08-18T05:13:30;21714.56;;;-141.84;51.49
15260;BME280;34462;51.368;12.364;2022-08-18T05:16:00;21753.19;;;-141.84;50.41
15260;BME280;34462;51.368;12.364;2022-08-18T05:18:50;21728.78;;;-141.84;51.08
15260;BME280;34462;51.368;12.364;2022-08-18T05:21:20;21789.78;;;-141.84;49.67
15260;BME280;34462;51.368;12.364;2022-08-18T05:23:50;21822.31;;;-141.84;49.22
15260;BME280;34462;51.368;12.364;2022-08-18T05:26:19;21856.91;;;-141.84;49.00
15260;BME280;34462;51.368;12.364;2022-08-18T05:28:47;21834.53;;;-141.84;49.69
15260;BME280;34462;51.368;12.364;2022-08-18T05:31:28;21836.56;;;-141.84;49.55
15260;BME280;34462;51.368;12.364;2022-08-18T05:33:56;21846.72;;;-141.84;49.55
15260;BME280;34462;51.368;12.364;2022-08-18T05:36:53;21901.63;;;-141.84;48.95
15260;BME280;34462;51.368;12.364;2022-08-18T05:39:29;21946.38;;;-141.84;48.38
15260;BME280;34462;51.368;12.364;2022-08-18T05:42:06;21901.63;;;-141.84;48.61
15260;BME280;34462;51.368;12.364;2022-08-18T05:44:39;21936.19;;;-141.84;49.00
15260;BME280;34462;51.368;12.364;2022-08-18T05:47:24;21952.47;;;-141.84;48.36
15260;BME280;34462;51.368;12.364;2022-08-18T05:49:55;21966.69;;;-141.84;48.69
15260;BME280;34462;51.368;12.364;2022-08-18T05:52:31;22033.81;;;-141.84;48.12
15260;BME280;34462;51.368;12.364;2022-08-18T05:55:05;21985.00;;;-141.84;48.32
15260;BME280;34462;51.368;12.364;2022-08-18T05:57:58;22050.06;;;-141.84;48.10
15260;BME280;34462;51.368;12.364;2022-08-18T06:00:29;22066.34;;;-141.84;47.92
15260;BME280;34462;51.368;12.364;2022-08-18T06:03:06;22050.06;;;-141.84;47.89
15260;BME280;34462;51.368;12.364;2022-08-18T06:05:49;22098.88;;;-141.84;47.71
15260;BME280;34462;51.368;12.364;2022-08-18T06:08:26;22137.50;;;-141.84;47.48
15260;BME280;34462;51.368;12.364;2022-08-18T06:10:56;22113.13;;;-141.84;47.66
15260;BME280;34462;51.368;12.364;2022-08-18T06:13:24;22190.38;;;-141.84;47.26
15260;BME280;34462;51.368;12.364;2022-08-18T06:16:04;22210.72;;;-141.84;47.08
15260;BME280;34462;51.368;12.364;2022-08-18T06:18:46;22265.63;;;-141.84;46.67
15260;BME280;34462;51.368;12.364;2022-08-18T06:21:44;22224.97;;;-141.84;46.81
15260;BME280;34462;51.368;12.364;2022-08-18T06:24:28;22265.63;;;-141.84;46.71
15260;BME280;34462;51.368;12.364;2022-08-18T06:27:09;22275.81;;;-141.84;46.95
15260;BME280;34462;51.368;12.364;2022-08-18T06:29:55;22298.16;;;-141.84;46.73
15260;BME280;34462;51.368;12.364;2022-08-18T06:32:46;22294.09;;;-141.84;47.26
15260;BME280;34462;51.368;12.364;2022-08-18T06:35:32;22269.69;;;-141.84;47.46
15260;BME280;34462;51.368;12.364;2022-08-18T06:38:18;22296.13;;;-141.84;47.72
15260;BME280;34462;51.368;12.364;2022-08-18T06:41:16;22271.72;;;-141.84;48.11
15260;BME280;34462;51.368;12.364;2022-08-18T06:44:09;22312.41;;;-141.84;47.93
15260;BME280;34462;51.368;12.364;2022-08-18T06:46:46;22353.09;;;-141.84;47.85
15260;BME280;34462;51.368;12.364;2022-08-18T06:49:34;22353.09;;;-141.84;47.62
15260;BME280;34462;51.368;12.364;2022-08-18T06:52:26;22312.41;;;-141.84;48.22
15260;BME280;34462;51.368;12.364;2022-08-18T06:54:58;22285.97;;;-141.84;48.09
15260;BME280;34462;51.368;12.364;2022-08-18T06:57:32;22302.25;;;-141.84;48.66
15260;BME280;34462;51.368;12.364;2022-08-18T07:00:08;22239.19;;;-141.84;48.98
15260;BME280;34462;51.368;12.364;2022-08-18T07:02:49;22290.03;;;-141.84;48.57
15260;BME280;34462;51.368;12.364;2022-08-18T07:05:23;22338.84;;;-141.84;48.19
15260;BME280;34462;51.368;12.364;2022-08-18T07:08:17;22336.81;;;-141.84;48.15
15260;BME280;34462;51.368;12.364;2022-08-18T07:10:50;22391.72;;;-141.84;47.91
15260;BME280;34462;51.368;12.364;2022-08-18T07:13:25;22365.28;;;-141.84;48.24
15260;BME280;34462;51.368;12.364;2022-08-18T07:16:17;22434.44;;;-141.84;47.73
15260;BME280;34462;51.368;12.364;2022-08-18T07:19:06;22507.66;;;-141.84;47.50
15260;BME280;34462;51.368;12.364;2022-08-18T07:21:37;22515.78;;;-141.84;47.19
15260;BME280;34462;51.368;12.364;2022-08-18T07:24:13;22534.09;;;-141.84;47.16
15260;BME280;34462;51.368;12.364;2022-08-18T07:27:01;22456.81;;;-141.84;47.79
15260;BME280;34462;51.368;12.364;2022-08-18T07:29:32;22430.38;;;-141.84;47.84
15260;BME280;34462;51.368;12.364;2022-08-18T07:32:09;22389.69;;;-141.84;48.46
15260;BME280;34462;51.368;12.364;2022-08-18T07:34:51;22385.63;;;-141.84;48.57
15260;BME280;34462;51.368;12.364;2022-08-18T07:37:30;22353.09;;;-141.84;48.91
15260;BME280;34462;51.368;12.364;2022-08-18T07:40:09;22326.66;;;-141.84;49.21
15260;BME280;34462;51.368;12.364;2022-08-18T07:42:46;22320.53;;;-141.84;49.46
15260;BME280;34462;51.368;12.364;2022-08-18T07:45:33;22322.56;;;-141.84;49.22
15260;BME280;34462;51.368;12.364;2022-08-18T07:48:10;22389.69;;;-141.84;48.50
15260;BME280;34462;51.368;12.364;2022-08-18T07:51:08;22403.94;;;-141.84;48.22
15260;BME280;34462;51.368;12.364;2022-08-18T07:53:52;22491.38;;;-141.84;48.23
15260;BME280;34462;51.368;12.364;2022-08-18T07:56:39;22578.81;;;-141.84;47.08
15260;BME280;34462;51.368;12.364;2022-08-18T07:59:15;22554.41;;;-141.84;47.26
15260;BME280;34462;51.368;12.364;2022-08-18T08:01:51;22623.56;;;-141.84;46.83
15260;BME280;34462;51.368;12.364;2022-08-18T08:04:38;22684.59;;;-141.84;46.29
15260;BME280;34462;51.368;12.364;2022-08-18T08:07:14;22658.16;;;-141.84;46.48
15260;BME280;34462;51.368;12.364;2022-08-18T08:10:15;22617.47;;;-141.84;46.97
15260;BME280;34462;51.368;12.364;2022-08-18T08:12:56;22601.19;;;-141.84;47.33
15260;BME280;34462;51.368;12.364;2022-08-18T08:15:47;22611.38;;;-141.84;47.38
15260;BME280;34462;51.368;12.364;2022-08-18T08:18:32;22578.81;;;-141.84;47.65
15260;BME280;34462;51.368;12.364;2022-08-18T08:21:10;22589.00;;;-141.84;47.46
15260;BME280;34462;51.368;12.364;2022-08-18T08:23:53;22576.78;;;-141.84;47.26
15260;BME280;34462;51.368;12.364;2022-08-18T08:26:39;22546.28;;;-141.84;47.33
15260;BME280;34462;51.368;12.364;2022-08-18T08:29:39;22680.53;;;-141.84;46.62
15260;BME280;34462;51.368;12.364;2022-08-18T08:32:27;22751.69;;;-141.84;45.91
15260;BME280;34462;51.368;12.364;2022-08-18T08:35:05;22847.28;;;-141.84;45.58
15260;BME280;34462;51.368;12.364;2022-08-18T08:37:59;22881.88;;;-141.84;44.79
15260;BME280;34462;51.368;12.364;2022-08-18T08:40:58;22879.84;;;-141.84;44.77
15260;BME280;34462;51.368;12.364;2022-08-18T08:43:35;22837.13;;;-141.84;45.27
15260;BME280;34462;51.368;12.364;2022-08-18T08:46:12;22778.16;;;-141.84;45.36
15260;BME280;34462;51.368;12.364;2022-08-18T08:48:49;22778.16;;;-141.84;45.98
15260;BME280;34462;51.368;12.364;2022-08-18T08:51:32;22851.38;;;-141.84;44.99
15260;BME280;34462;51.368;12.364;2022-08-18T08:54:10;22782.22;;;-141.84;45.29
15260;BME280;34462;51.368;12.364;2022-08-18T08:56:45;22761.88;;;-141.84;45.86
15260;BME280;34462;51.368;12.364;2022-08-18T08:59:16;22831.03;;;-141.84;45.41
15260;BME280;34462;51.368;12.364;2022-08-18T09:02:06;22796.44;;;-141.84;45.41
15260;BME280;34462;51.368;12.364;2022-08-18T09:05:09;22814.75;;;-141.84;45.49
15260;BME280;34462;51.368;12.364;2022-08-18T09:11:43;22800.50;;;-141.84;45.55
15260;BME280;34462;51.368;12.364;2022-08-18T09:15:15;22934.75;;;-141.84;44.64
15260;BME280;34462;51.368;12.364;2022-08-18T09:18:24;22910.34;;;-141.84;45.17
15260;BME280;34462;51.368;12.364;2022-08-18T09:21:13;22973.41;;;-141.84;44.83
15260;BME280;34462;51.368;12.364;2022-08-18T09:23:49;22997.81;;;-141.84;44.04
15260;BME280;34462;51.368;12.364;2022-08-18T09:26:40;22969.34;;;-141.84;44.23
15260;BME280;34462;51.368;12.364;2022-08-18T09:29:25;23022.22;;;-141.84;43.95
15260;BME280;34462;51.368;12.364;2022-08-18T09:32:37;23066.97;;;-141.84;44.14
15260;BME280;34462;51.368;12.364;2022-08-18T09:35:33;23032.38;;;-141.84;44.32
15260;BME280;34462;51.368;12.364;2022-08-18T09:38:11;23189.00;;;-141.84;42.98
15260;BME280;34462;51.368;12.364;2022-08-18T09:41:07;23189.00;;;-141.84;43.47
15260;BME280;34462;51.368;12.364;2022-08-18T09:44:01;23197.16;;;-141.84;43.17
15260;BME280;34462;51.368;12.364;2022-08-18T09:46:59;23211.38;;;-141.84;42.97
15260;BME280;34462;51.368;12.364;2022-08-18T09:49:48;23203.25;;;-141.84;42.97
15260;BME280;34462;51.368;12.364;2022-08-18T09:52:48;23148.34;;;-141.84;43.33
15260;BME280;34462;51.368;12.364;2022-08-18T09:55:39;23189.00;;;-141.84;43.87
15260;BME280;34462;51.368;12.364;2022-08-18T09:58:53;23248.00;;;-141.84;42.41
15260;BME280;34462;51.368;12.364;2022-08-18T10:01:39;23217.50;;;-141.84;42.94
15260;BME280;34462;51.368;12.364;2022-08-18T10:04:32;23178.84;;;-141.84;42.60
15260;BME280;34462;51.368;12.364;2022-08-18T10:07:30;23280.56;;;-141.84;42.45
15260;BME280;34462;51.368;12.364;2022-08-18T10:10:20;23258.19;;;-141.84;42.17
15260;BME280;34462;51.368;12.364;2022-08-18T10:13:22;23302.94;;;-141.84;42.73
15260;BME280;34462;51.368;12.364;2022-08-18T10:16:13;23225.63;;;-141.84;43.21
15260;BME280;34462;51.368;12.364;2022-08-18T10:19:03;23335.47;;;-141.84;42.11
15260;BME280;34462;51.368;12.364;2022-08-18T10:22:06;23319.19;;;-141.84;42.23
15260;BME280;34462;51.368;12.364;2022-08-18T10:24:42;23266.31;;;-141.84;42.16
15260;BME280;34462;51.368;12.364;2022-08-18T10:27:46;23256.13;;;-141.84;42.75
15260;BME280;34462;51.368;12.364;2022-08-18T10:31:00;23296.81;;;-141.84;42.31
15260;BME280;34462;51.368;12.364;2022-08-18T10:34:01;23225.63;;;-141.84;42.76
15260;BME280;34462;51.368;12.364;2022-08-18T10:36:50;23317.16;;;-141.84;42.35
15260;BME280;34462;51.368;12.364;2022-08-18T10:39:45;23382.25;;;-141.84;41.94
15260;BME280;34462;51.368;12.364;2022-08-18T10:42:23;23477.88;;;-141.84;41.77
15260;BME280;34462;51.368;12.364;2022-08-18T10:45:11;23441.25;;;-141.84;41.86
15260;BME280;34462;51.368;12.364;2022-08-18T10:48:01;23402.59;;;-141.84;41.98
15260;BME280;34462;51.368;12.364;2022-08-18T10:50:51;23433.13;;;-141.84;42.50
15260;BME280;34462;51.368;12.364;2022-08-18T10:53:34;23433.13;;;-141.84;42.48
15260;BME280;34462;51.368;12.364;2022-08-18T10:56:25;23296.81;;;-141.84;42.30
15260;BME280;34462;51.368;12.364;2022-08-18T10:59:07;23278.50;;;-141.84;43.13
15260;BME280;34462;51.368;12.364;2022-08-18T11:02:12;23213.44;;;-141.84;42.92
15260;BME280;34462;51.368;12.364;2022-08-18T11:04:46;23123.94;;;-141.84;43.95
15260;BME280;34462;51.368;12.364;2022-08-18T11:07:28;23097.47;;;-141.84;44.29
15260;BME280;34462;51.368;12.364;2022-08-18T11:10:15;23044.59;;;-141.84;44.35
15260;BME280;34462;51.368;12.364;2022-08-18T11:13:13;23099.50;;;-141.84;43.99
15260;BME280;34462;51.368;12.364;2022-08-18T11:16:01;23038.50;;;-141.84;44.27
15260;BME280;34462;51.368;12.364;2022-08-18T11:18:40;22924.59;;;-141.84;44.65
